sensor_id;sensor_type;location;lat;lon;timestamp;pressure;altitude;pressure_sealevel;temperature;humidity
10921;BME280;5513;50.580;8.818;2022-12-07T00:02:28;99184.88;;;3.11;100.00
10921;BME280;5513;50.580;8.818;2022-12-07T00:04:57;99183.34;;;2.77;100.00
10921;BME280;5513;50.580;8.818;2022-12-07T00:07:25;99179.84;;;3.05;100.00
10921;BME280;5513;50.580;8.818;2022-12-07T00:09:53;99180.44;;;2.86;100.00
10921;BME280;5513;50.580;8.818;2022-12-07T00:12:25;99172.25;;;2.97;100.00
10921;BME280;5513;50.580;8.818;2022-12-07T00:14:54;99176.16;;;2.84;100.00
10921;BME280;5513;50.580;8.818;2022-12-07T00:17:23;99190.16;;;2.83;100.00
10921;BME280;5513;50.580;8.818;2022-12-07T00:19:53;99177.75;;;2.90;100.00
10921;BME280;5513;50.580;8.818;2022-12-07T00:22:21;99168.72;;;2.98;100.00
10921;BME280;5513;50.580;8.818;2022-12-07T00:24:51;99170.03;;;3.11;100.00
10921;BME280;5513;50.580;8.818;2022-12-07T00:27:19;99162.53;;;3.01;100.00
10921;BME280;5513;50.580;8.818;2022-12-07T00:29:47;99166.00;;;2.75;100.00
10921;BME280;5513;50.580;8.818;2022-12-07T00:32:16;99162.72;;;2.68;100.00
10921;BME280;5513;50.580;8.818;2022-12-07T00:34:44;99162.78;;;2.93;100.00
10921;BME280;5513;50.580;8.818;2022-12-07T00:37:14;99158.22;;;3.00;100.00
10921;BME280;5513;50.580;8.818;2022-12-07T00:39:43;99151.91;;;2.79;100.00
10921;BME280;5513;50.580;8.818;2022-12-07T00:42:11;99140.75;;;3.00;100.00
10921;BME280;5513;50.580;8.818;2022-12-07T00:44:40;99147.75;;;3.00;100.00
10921;BME280;5513;50.580;8.818;2022-12-07T00:47:08;99149.06;;;2.86;100.00
10921;BME280;5513;50.580;8.818;2022-12-07T00:49:37;99153.78;;;3.02;100.00
10921;BME280;5513;50.580;8.818;2022-12-07T00:52:06;99144.28;;;2.99;100.00
10921;BME280;5513;50.580;8.818;2022-12-07T00:54:36;99137.78;;;2.84;100.00
10921;BME280;5513;50.580;8.818;2022-12-07T00:57:05;99136.34;;;2.76;100.00
10921;BME280;5513;50.580;8.818;2022-12-07T00:59:33;99132.56;;;2.84;100.00
10921;BME280;5513;50.580;8.818;2022-12-07T01:02:05;99137.06;;;3.06;100.00
10921;BME280;5513;50.580;8.818;2022-12-07T01:04:33;99145.53;;;2.87;100.00
10921;BME280;5513;50.580;8.818;2022-12-07T01:07:01;99148.88;;;2.93;100.00
10921;BME280;5513;50.580;8.818;2022-12-07T01:09:30;99142.13;;;2.85;100.00
10921;BME280;5513;50.580;8.818;2022-12-07T01:12:01;99139.44;;;2.87;100.00
10921;BME280;5513;50.580;8.818;2022-12-07T01:14:30;99146.78;;;2.76;100.00
10921;BME280;5513;50.580;8.818;2022-12-07T01:17:03;99155.19;;;2.85;100.00
10921;BME280;5513;50.580;8.818;2022-12-07T01:19:32;99148.25;;;2.84;100.00
10921;BME280;5513;50.580;8.818;2022-12-07T01:22:00;99142.06;;;2.87;100.00
10921;BME280;5513;50.580;8.818;2022-12-07T01:24:28;99146.44;;;2.86;100.00
10921;BME280;5513;50.580;8.818;2022-12-07T01:26:57;99134.13;;;2.90;100.00
10921;BME280;5513;50.580;8.818;2022-12-07T01:29:26;99140.91;;;2.96;100.00
10921;BME280;5513;50.580;8.818;2022-12-07T01:31:55;99128.53;;;3.01;100.00
10921;BME280;5513;50.580;8.818;2022-12-07T01:34:23;99131.22;;;2.98;100.00
10921;BME280;5513;50.580;8.818;2022-12-07T01:36:51;99136.28;;;3.04;100.00
10921;BME280;5513;50.580;8.818;2022-12-07T01:39:21;99125.00;;;3.02;100.00
10921;BME280;5513;50.580;8.818;2022-12-07T01:41:49;99129.03;;;3.12;100.00
10921;BME280;5513;50.580;8.818;2022-12-07T01:44:20;99130.88;;;3.08;100.00
10921;BME280;5513;50.580;8.818;2022-12-07T01:46:51;99139.50;;;3.12;100.00
10921;BME280;5513;50.580;8.818;2022-12-07T01:49:25;99136.75;;;3.15;100.00
10921;BME280;5513;50.580;8.818;2022-12-07T01:52:00;99148.47;;;3.30;100.00
10921;BME280;5513;50.580;8.818;2022-12-07T01:54:33;99138.75;;;3.33;100.00
10921;BME280;5513;50.580;8.818;2022-12-07T01:57:04;99138.25;;;3.22;100.00
10921;BME280;5513;50.580;8.818;2022-12-07T01:59:35;99124.31;;;3.22;100.00
10921;BME280;5513;50.580;8.818;2022-12-07T02:02:12;99125.00;;;3.27;100.00
10921;BME280;5513;50.580;8.818;2022-12-07T02:04:45;99121.97;;;3.39;100.00
10921;BME280;5513;50.580;8.818;2022-12-07T02:07:14;99118.59;;;3.35;100.00
10921;BME280;5513;50.580;8.818;2022-12-07T02:09:43;99117.25;;;3.49;100.00
10921;BME280;5513;50.580;8.818;2022-12-07T02:12:12;99112.41;;;3.38;100.00
10921;BME280;5513;50.580;8.818;2022-12-07T02:14:41;99114.69;;;3.47;100.00
10921;BME280;5513;50.580;8.818;2022-12-07T02:17:14;99116.69;;;3.40;100.00
10921;BME280;5513;50.580;8.818;2022-12-07T02:20:07;99104.69;;;3.58;100.00
10921;BME280;5513;50.580;8.818;2022-12-07T02:23:09;99104.00;;;3.53;100.00
10921;BME280;5513;50.580;8.818;2022-12-07T02:29:10;99095.00;;;3.60;100.00
10921;BME280;5513;50.580;8.818;2022-12-07T02:31:46;99107.47;;;3.54;100.00
10921;BME280;5513;50.580;8.818;2022-12-07T02:34:24;99100.31;;;3.59;100.00
10921;BME280;5513;50.580;8.818;2022-12-07T02:37:00;99101.56;;;3.49;100.00
10921;BME280;5513;50.580;8.818;2022-12-07T02:39:37;99099.47;;;3.58;100.00
10921;BME280;5513;50.580;8.818;2022-12-07T02:42:31;99100.19;;;3.62;100.00
10921;BME280;5513;50.580;8.818;2022-12-07T02:45:03;99096.41;;;3.45;100.00
10921;BME280;5513;50.580;8.818;2022-12-07T02:47:36;99096.00;;;3.56;100.00
10921;BME280;5513;50.580;8.818;2022-12-07T02:50:06;99097.78;;;3.56;100.00
10921;BME280;5513;50.580;8.818;2022-12-07T02:52:37;99092.59;;;3.54;100.00
10921;BME280;5513;50.580;8.818;2022-12-07T02:55:06;99095.88;;;3.61;100.00
10921;BME280;5513;50.580;8.818;2022-12-07T02:57:53;99093.31;;;3.59;100.00
10921;BME280;5513;50.580;8.818;2022-12-07T03:00:27;99089.66;;;3.63;100.00
10921;BME280;5513;50.580;8.818;2022-12-07T03:03:00;99088.34;;;3.52;100.00
10921;BME280;5513;50.580;8.818;2022-12-07T03:05:47;99091.47;;;3.38;100.00
10921;BME280;5513;50.580;8.818;2022-12-07T03:08:24;99078.16;;;3.44;100.00
10921;BME280;5513;50.580;8.818;2022-12-07T03:10:59;99078.72;;;3.52;100.00
10921;BME280;5513;50.580;8.818;2022-12-07T03:13:34;99085.16;;;3.43;100.00
10921;BME280;5513;50.580;8.818;2022-12-07T03:16:10;99075.53;;;3.44;100.00
10921;BME280;5513;50.580;8.818;2022-12-07T03:18:47;99078.84;;;3.49;100.00
10921;BME280;5513;50.580;8.818;2022-12-07T03:21:20;99071.31;;;3.40;100.00
10921;BME280;5513;50.580;8.818;2022-12-07T03:23:53;99080.56;;;3.50;100.00
10921;BME280;5513;50.580;8.818;2022-12-07T03:26:25;99086.06;;;3.42;100.00
10921;BME280;5513;50.580;8.818;2022-12-07T03:29:01;99070.47;;;3.39;100.00
10921;BME280;5513;50.580;8.818;2022-12-07T03:31:33;99074.00;;;3.38;100.00
10921;BME280;5513;50.580;8.818;2022-12-07T03:34:08;99065.19;;;3.41;100.00
10921;BME280;5513;50.580;8.818;2022-12-07T03:36:42;99065.97;;;3.43;100.00
10921;BME280;5513;50.580;8.818;2022-12-07T03:39:19;99070.75;;;3.32;100.00
10921;BME280;5513;50.580;8.818;2022-12-07T03:41:51;99071.09;;;3.46;100.00
10921;BME280;5513;50.580;8.818;2022-12-07T03:44:22;99066.81;;;3.43;100.00
10921;BME280;5513;50.580;8.818;2022-12-07T03:47:05;99068.25;;;3.52;100.00
10921;BME280;5513;50.580;8.818;2022-12-07T03:49:41;99060.28;;;3.55;100.00
10921;BME280;5513;50.580;8.818;2022-12-07T03:52:20;99067.22;;;3.56;100.00
10921;BME280;5513;50.580;8.818;2022-12-07T03:54:54;99064.59;;;3.56;100.00
10921;BME280;5513;50.580;8.818;2022-12-07T03:57:26;99067.66;;;3.44;100.00
10921;BME280;5513;50.580;8.818;2022-12-07T03:59:57;99061.72;;;3.40;100.00
10921;BME280;5513;50.580;8.818;2022-12-07T04:02:29;99064.84;;;3.50;100.00
10921;BME280;5513;50.580;8.818;2022-12-07T04:04:58;99064.00;;;3.25;100.00
10921;BME280;5513;50.580;8.818;2022-12-07T04:07:29;99058.44;;;3.34;100.00
10921;BME280;5513;50.580;8.818;2022-12-07T04:09:57;99055.56;;;3.41;100.00
10921;BME280;5513;50.580;8.818;2022-12-07T04:12:26;99059.16;;;3.39;100.00
10921;BME280;5513;50.580;8.818;2022-12-07T04:14:56;99060.59;;;3.46;100.00
10921;BME280;5513;50.580;8.818;2022-12-07T04:17:24;99062.28;;;3.49;100.00
10921;BME280;5513;50.580;8.818;2022-12-07T04:19:54;99065.97;;;3.43;100.00
10921;BME280;5513;50.580;8.818;2022-12-07T04:22:23;99060.59;;;3.48;100.00
10921;BME280;5513;50.580;8.818;2022-12-07T04:24:52;99064.84;;;3.50;100.00
10921;BME280;5513;50.580;8.818;2022-12-07T04:27:20;99064.31;;;3.40;100.00
10921;BME280;5513;50.580;8.818;2022-12-07T04:29:49;99064.00;;;3.50;100.00
10921;BME280;5513;50.580;8.818;2022-12-07T04:32:17;99048.22;;;3.51;100.00
10921;BME280;5513;50.580;8.818;2022-12-07T04:34:48;99063.28;;;3.44;100.00
10921;BME280;5513;50.580;8.818;2022-12-07T04:37:23;99067.22;;;3.56;100.00
10921;BME280;5513;50.580;8.818;2022-12-07T04:39:53;99058.66;;;3.28;100.00
10921;BME280;5513;50.580;8.818;2022-12-07T04:42:21;99066.88;;;3.42;100.00
10921;BME280;5513;50.580;8.818;2022-12-07T04:44:49;99062.22;;;3.50;100.00
10921;BME280;5513;50.580;8.818;2022-12-07T04:47:18;99066.66;;;3.48;100.00
10921;BME280;5513;50.580;8.818;2022-12-07T04:49:49;99060.59;;;3.46;100.00
10921;BME280;5513;50.580;8.818;2022-12-07T04:52:17;99060.53;;;3.49;100.00
10921;BME280;5513;50.580;8.818;2022-12-07T04:54:48;99062.88;;;3.55;100.00
10921;BME280;5513;50.580;8.818;2022-12-07T04:57:16;99065.34;;;3.60;100.00
10921;BME280;5513;50.580;8.818;2022-12-07T04:59:44;99052.25;;;3.60;100.00
10921;BME280;5513;50.580;8.818;2022-12-07T05:02:13;99054.59;;;3.44;100.00
10921;BME280;5513;50.580;8.818;2022-12-07T05:04:41;99050.19;;;3.44;100.00
10921;BME280;5513;50.580;8.818;2022-12-07T05:07:10;99056.28;;;3.45;100.00
10921;BME280;5513;50.580;8.818;2022-12-07T05:09:39;99054.13;;;3.56;100.00
10921;BME280;5513;50.580;8.818;2022-12-07T05:12:09;99046.38;;;3.53;100.00
10921;BME280;5513;50.580;8.818;2022-12-07T05:14:37;99050.47;;;3.37;100.00
10921;BME280;5513;50.580;8.818;2022-12-07T05:17:08;99056.47;;;3.40;100.00
10921;BME280;5513;50.580;8.818;2022-12-07T05:19:38;99047.59;;;3.44;100.00
10921;BME280;5513;50.580;8.818;2022-12-07T05:22:09;99052.72;;;3.48;100.00
10921;BME280;5513;50.580;8.818;2022-12-07T05:24:37;99058.56;;;3.54;100.00
10921;BME280;5513;50.580;8.818;2022-12-07T05:27:06;99060.41;;;3.52;100.00
10921;BME280;5513;50.580;8.818;2022-12-07T05:29:38;99061.38;;;3.50;100.00
10921;BME280;5513;50.580;8.818;2022-12-07T05:32:08;99060.53;;;3.49;100.00
10921;BME280;5513;50.580;8.818;2022-12-07T05:34:37;99060.66;;;3.44;100.00
10921;BME280;5513;50.580;8.818;2022-12-07T05:37:06;99055.34;;;3.48;100.00
10921;BME280;5513;50.580;8.818;2022-12-07T05:39:35;99061.06;;;3.34;100.00
10921;BME280;5513;50.580;8.818;2022-12-07T05:42:04;99054.97;;;3.33;100.00
10921;BME280;5513;50.580;8.818;2022-12-07T05:44:44;99062.38;;;3.45;100.00
10921;BME280;5513;50.580;8.818;2022-12-07T05:47:15;99067.47;;;3.50;100.00
10921;BME280;5513;50.580;8.818;2022-12-07T05:49:43;99076.09;;;3.52;100.00
10921;BME280;5513;50.580;8.818;2022-12-07T05:52:12;99067.53;;;3.49;100.00
10921;BME280;5513;50.580;8.818;2022-12-07T05:54:42;99073.44;;;3.54;100.00
10921;BME280;5513;50.580;8.818;2022-12-07T05:57:10;99070.94;;;3.51;100.00
10921;BME280;5513;50.580;8.818;2022-12-07T05:59:39;99072.50;;;3.55;100.00
10921;BME280;5513;50.580;8.818;2022-12-07T06:02:09;99074.13;;;3.59;100.00
10921;BME280;5513;50.580;8.818;2022-12-07T06:04:41;99075.84;;;3.60;100.00
10921;BME280;5513;50.580;8.818;2022-12-07T06:07:11;99066.09;;;3.63;100.00
10921;BME280;5513;50.580;8.818;2022-12-07T06:09:40;99067.84;;;3.63;100.00
10921;BME280;5513;50.580;8.818;2022-12-07T06:12:10;99067.34;;;3.53;100.00
10921;BME280;5513;50.580;8.818;2022-12-07T06:14:56;99061.59;;;3.43;100.00
10921;BME280;5513;50.580;8.818;2022-12-07T06:17:26;99057.91;;;3.49;100.00
10921;BME280;5513;50.580;8.818;2022-12-07T06:19:54;99061.31;;;3.51;100.00
10921;BME280;5513;50.580;8.818;2022-12-07T06:22:22;99066.34;;;3.57;100.00
10921;BME280;5513;50.580;8.818;2022-12-07T06:24:51;99070.47;;;3.63;100.00
10921;BME280;5513;50.580;8.818;2022-12-07T06:27:20;99067.22;;;3.56;100.00
10921;BME280;5513;50.580;8.818;2022-12-07T06:29:49;99071.56;;;3.57;100.00
10921;BME280;5513;50.580;8.818;2022-12-07T06:32:17;99073.03;;;3.64;100.00
10921;BME280;5513;50.580;8.818;2022-12-07T06:34:47;99078.25;;;3.64;100.00
10921;BME280;5513;50.580;8.818;2022-12-07T06:37:16;99073.16;;;3.61;100.00
10921;BME280;5513;50.580;8.818;2022-12-07T06:39:44;99071.72;;;3.53;100.00
10921;BME280;5513;50.580;8.818;2022-12-07T06:42:13;99075.03;;;3.58;100.00
10921;BME280;5513;50.580;8.818;2022-12-07T06:44:42;99076.03;;;3.54;100.00
10921;BME280;5513;50.580;8.818;2022-12-07T06:47:11;99076.63;;;3.62;100.00
10921;BME280;5513;50.580;8.818;2022-12-07T06:50:03;99084.59;;;3.59;100.00
10921;BME280;5513;50.580;8.818;2022-12-07T06:52:36;99076.81;;;3.57;100.00
10921;BME280;5513;50.580;8.818;2022-12-07T06:55:06;99085.59;;;3.55;100.00
10921;BME280;5513;50.580;8.818;2022-12-07T06:57:37;99091.81;;;3.52;100.00
10921;BME280;5513;50.580;8.818;2022-12-07T07:00:07;99088.41;;;3.50;100.00
10921;BME280;5513;50.580;8.818;2022-12-07T07:02:35;99088.28;;;3.53;100.00
10921;BME280;5513;50.580;8.818;2022-12-07T07:05:06;99093.59;;;3.52;100.00
10921;BME280;5513;50.580;8.818;2022-12-07T07:07:35;99088.91;;;3.60;100.00
10921;BME280;5513;50.580;8.818;2022-12-07T07:10:23;99089.84;;;3.59;100.00
10921;BME280;5513;50.580;8.818;2022-12-07T07:12:52;99087.56;;;3.50;100.00
10921;BME280;5513;50.580;8.818;2022-12-07T07:15:23;99087.03;;;3.40;100.00
10921;BME280;5513;50.580;8.818;2022-12-07T07:17:52;99091.94;;;3.49;100.00
10921;BME280;5513;50.580;8.818;2022-12-07T07:20:22;99082.38;;;3.48;100.00
10921;BME280;5513;50.580;8.818;2022-12-07T07:22:51;99092.22;;;3.41;100.00
10921;BME280;5513;50.580;8.818;2022-12-07T07:25:22;99087.13;;;3.37;100.00
10921;BME280;5513;50.580;8.818;2022-12-07T07:27:51;99102.28;;;3.27;100.00
10921;BME280;5513;50.580;8.818;2022-12-07T07:30:19;99099.66;;;3.29;100.00
10921;BME280;5513;50.580;8.818;2022-12-07T07:32:48;99099.47;;;3.08;100.00
10921;BME280;5513;50.580;8.818;2022-12-07T07:35:17;99107.84;;;3.18;100.00
10921;BME280;5513;50.580;8.818;2022-12-07T07:37:47;99104.06;;;3.27;100.00
10921;BME280;5513;50.580;8.818;2022-12-07T07:40:19;99114.16;;;3.37;100.00
10921;BME280;5513;50.580;8.818;2022-12-07T07:42:48;99103.13;;;3.29;100.00
10921;BME280;5513;50.580;8.818;2022-12-07T07:45:19;99109.94;;;3.33;100.00
10921;BME280;5513;50.580;8.818;2022-12-07T07:47:48;99106.88;;;3.45;100.00
10921;BME280;5513;50.580;8.818;2022-12-07T07:50:17;99115.38;;;3.52;100.00
10921;BME280;5513;50.580;8.818;2022-12-07T07:52:47;99113.41;;;3.59;100.00
10921;BME280;5513;50.580;8.818;2022-12-07T07:55:16;99111.63;;;3.59;100.00
10921;BME280;5513;50.580;8.818;2022-12-07T07:57:44;99114.66;;;3.72;100.00
10921;BME280;5513;50.580;8.818;2022-12-07T08:00:21;99113.50;;;3.56;100.00
10921;BME280;5513;50.580;8.818;2022-12-07T08:02:49;99120.59;;;3.77;100.00
10921;BME280;5513;50.580;8.818;2022-12-07T08:05:18;99112.25;;;3.66;100.00
10921;BME280;5513;50.580;8.818;2022-12-07T08:07:49;99120.44;;;3.57;100.00
10921;BME280;5513;50.580;8.818;2022-12-07T08:10:18;99102.94;;;3.59;100.00
10921;BME280;5513;50.580;8.818;2022-12-07T08:12:46;99106.63;;;3.53;100.00
10921;BME280;5513;50.580;8.818;2022-12-07T08:15:32;99106.63;;;3.53;100.00
10921;BME280;5513;50.580;8.818;2022-12-07T08:18:00;99103.94;;;3.55;100.00
10921;BME280;5513;50.580;8.818;2022-12-07T08:20:30;99109.41;;;3.49;100.00
10921;BME280;5513;50.580;8.818;2022-12-07T08:23:00;99111.91;;;3.52;100.00
10921;BME280;5513;50.580;8.818;2022-12-07T08:25:29;99116.34;;;3.50;100.00
10921;BME280;5513;50.580;8.818;2022-12-07T08:27:58;99116.69;;;3.64;100.00
10921;BME280;5513;50.580;8.818;2022-12-07T08:30:27;99111.19;;;3.71;100.00
10921;BME280;5513;50.580;8.818;2022-12-07T08:32:56;99122.69;;;3.67;100.00
10921;BME280;5513;50.580;8.818;2022-12-07T08:35:25;99114.53;;;3.75;100.00
10921;BME280;5513;50.580;8.818;2022-12-07T08:37:53;99117.13;;;3.77;100.00
10921;BME280;5513;50.580;8.818;2022-12-07T08:40:25;99117.47;;;3.66;100.00
10921;BME280;5513;50.580;8.818;2022-12-07T08:42:54;99120.22;;;3.63;100.00
10921;BME280;5513;50.580;8.818;2022-12-07T08:45:23;99114.88;;;3.66;100.00
10921;BME280;5513;50.580;8.818;2022-12-07T08:47:55;99120.47;;;3.80;100.00
10921;BME280;5513;50.580;8.818;2022-12-07T08:50:26;99116.06;;;4.04;100.00
10921;BME280;5513;50.580;8.818;2022-12-07T08:52:56;99116.66;;;3.89;100.00
10921;BME280;5513;50.580;8.818;2022-12-07T08:55:28;99120.66;;;4.21;100.00
10921;BME280;5513;50.580;8.818;2022-12-07T08:57:59;99115.13;;;4.05;100.00
10921;BME280;5513;50.580;8.818;2022-12-07T09:00:28;99120.72;;;4.19;100.00
10921;BME280;5513;50.580;8.818;2022-12-07T09:02:57;99118.31;;;4.37;100.00
10921;BME280;5513;50.580;8.818;2022-12-07T09:05:25;99113.84;;;4.39;100.00
10921;BME280;5513;50.580;8.818;2022-12-07T09:07:57;99110.56;;;4.55;100.00
10921;BME280;5513;50.580;8.818;2022-12-07T09:10:29;99111.56;;;4.51;100.00
10921;BME280;5513;50.580;8.818;2022-12-07T09:12:58;99115.53;;;4.62;100.00
10921;BME280;5513;50.580;8.818;2022-12-07T09:15:29;99109.50;;;4.38;100.00
10921;BME280;5513;50.580;8.818;2022-12-07T09:17:58;99109.94;;;4.49;100.00
10921;BME280;5513;50.580;8.818;2022-12-07T09:20:29;99121.81;;;4.57;100.00
10921;BME280;5513;50.580;8.818;2022-12-07T09:22:58;99115.47;;;4.63;100.00
10921;BME280;5513;50.580;8.818;2022-12-07T09:25:29;99120.00;;;4.59;100.00
10921;BME280;5513;50.580;8.818;2022-12-07T09:27:58;99112.13;;;4.59;100.00
10921;BME280;5513;50.580;8.818;2022-12-07T09:30:28;99120.34;;;4.50;100.00
10921;BME280;5513;50.580;8.818;2022-12-07T09:32:58;99117.66;;;4.52;100.00
10921;BME280;5513;50.580;8.818;2022-12-07T09:35:26;99121.09;;;4.32;100.00
10921;BME280;5513;50.580;8.818;2022-12-07T09:37:55;99112.31;;;4.55;100.00
10921;BME280;5513;50.580;8.818;2022-12-07T09:40:24;99109.19;;;4.67;100.00
10921;BME280;5513;50.580;8.818;2022-12-07T09:42:55;99109.38;;;4.84;100.00
10921;BME280;5513;50.580;8.818;2022-12-07T09:45:26;99101.56;;;4.83;100.00
10921;BME280;5513;50.580;8.818;2022-12-07T09:48:00;99099.81;;;4.82;100.00
10921;BME280;5513;50.580;8.818;2022-12-07T09:50:31;99098.97;;;4.81;100.00
10921;BME280;5513;50.580;8.818;2022-12-07T09:53:08;99085.50;;;4.69;100.00
10921;BME280;5513;50.580;8.818;2022-12-07T09:55:37;99084.53;;;4.92;100.00
10921;BME280;5513;50.580;8.818;2022-12-07T09:58:12;99074.34;;;5.06;100.00
10921;BME280;5513;50.580;8.818;2022-12-07T10:00:48;99063.28;;;5.18;100.00
10921;BME280;5513;50.580;8.818;2022-12-07T10:03:19;99062.59;;;5.14;100.00
10921;BME280;5513;50.580;8.818;2022-12-07T10:05:52;99058.59;;;5.45;100.00
10921;BME280;5513;50.580;8.818;2022-12-07T10:08:21;99045.69;;;5.59;100.00
10921;BME280;5513;50.580;8.818;2022-12-07T10:10:52;99045.63;;;5.61;100.00
10921;BME280;5513;50.580;8.818;2022-12-07T10:13:33;99038.53;;;5.63;100.00
10921;BME280;5513;50.580;8.818;2022-12-07T10:16:04;99034.25;;;5.41;100.00
10921;BME280;5513;50.580;8.818;2022-12-07T10:18:36;99028.81;;;5.26;100.00
10921;BME280;5513;50.580;8.818;2022-12-07T10:21:14;99029.00;;;5.41;100.00
10921;BME280;5513;50.580;8.818;2022-12-07T10:24:00;99032.91;;;5.33;100.00
10921;BME280;5513;50.580;8.818;2022-12-07T10:26:32;99021.66;;;5.29;100.00
10921;BME280;5513;50.580;8.818;2022-12-07T10:29:19;99009.94;;;5.17;100.00
10921;BME280;5513;50.580;8.818;2022-12-07T10:31:53;99017.75;;;5.19;100.00
10921;BME280;5513;50.580;8.818;2022-12-07T10:34:26;99013.19;;;5.04;100.00
10921;BME280;5513;50.580;8.818;2022-12-07T10:37:15;99014.66;;;5.09;100.00
10921;BME280;5513;50.580;8.818;2022-12-07T10:39:46;99016.72;;;5.03;100.00
10921;BME280;5513;50.580;8.818;2022-12-07T10:42:17;99011.19;;;5.09;100.00
10921;BME280;5513;50.580;8.818;2022-12-07T10:44:49;99006.66;;;4.92;100.00
10921;BME280;5513;50.580;8.818;2022-12-07T10:47:29;99007.13;;;5.22;100.00
10921;BME280;5513;50.580;8.818;2022-12-07T10:50:14;98999.28;;;5.21;100.00
10921;BME280;5513;50.580;8.818;2022-12-07T10:52:58;99005.22;;;5.44;100.00
10921;BME280;5513;50.580;8.818;2022-12-07T10:55:44;99003.94;;;5.72;100.00
10921;BME280;5513;50.580;8.818;2022-12-07T10:58:31;98987.59;;;6.03;100.00
10921;BME280;5513;50.580;8.818;2022-12-07T11:01:11;98990.41;;;6.17;100.00
10921;BME280;5513;50.580;8.818;2022-12-07T11:03:55;98980.84;;;6.51;100.00
10921;BME280;5513;50.580;8.818;2022-12-07T11:06:37;98976.06;;;6.42;100.00
10921;BME280;5513;50.580;8.818;2022-12-07T11:09:39;98967.59;;;6.35;100.00
10921;BME280;5513;50.580;8.818;2022-12-07T11:12:41;98970.00;;;6.22;100.00
10921;BME280;5513;50.580;8.818;2022-12-07T11:15:21;98957.75;;;6.04;100.00
10921;BME280;5513;50.580;8.818;2022-12-07T11:17:58;98964.91;;;6.19;100.00
10921;BME280;5513;50.580;8.818;2022-12-07T11:20:43;98960.22;;;6.07;100.00
10921;BME280;5513;50.580;8.818;2022-12-07T11:23:18;98959.22;;;5.92;100.00
10921;BME280;5513;50.580;8.818;2022-12-07T11:25:54;98946.28;;;5.69;100.00
10921;BME280;5513;50.580;8.818;2022-12-07T11:28:37;98955.88;;;5.70;100.00
10921;BME280;5513;50.580;8.818;2022-12-07T11:31:13;98952.59;;;5.65;100.00
10921;BME280;5513;50.580;8.818;2022-12-07T11:34:05;98949.28;;;5.61;100.00
10921;BME280;5513;50.580;8.818;2022-12-07T11:36:38;98950.84;;;5.46;100.00
10921;BME280;5513;50.580;8.818;2022-12-07T11:39:25;98935.16;;;5.45;100.00
10921;BME280;5513;50.580;8.818;2022-12-07T11:41:57;98936.66;;;5.51;100.00
10921;BME280;5513;50.580;8.818;2022-12-07T11:44:34;98935.31;;;5.42;100.00
10921;BME280;5513;50.580;8.818;2022-12-07T11:47:09;98936.66;;;5.32;100.00
10921;BME280;5513;50.580;8.818;2022-12-07T11:49:47;98934.88;;;5.32;100.00
10921;BME280;5513;50.580;8.818;2022-12-07T11:52:25;98924.47;;;5.31;100.00
10921;BME280;5513;50.580;8.818;2022-12-07T11:54:59;98927.72;;;5.36;100.00
10921;BME280;5513;50.580;8.818;2022-12-07T11:57:38;98936.44;;;5.36;100.00
10921;BME280;5513;50.580;8.818;2022-12-07T12:00:14;98920.81;;;5.52;100.00
10921;BME280;5513;50.580;8.818;2022-12-07T12:02:50;98918.31;;;5.49;100.00
10921;BME280;5513;50.580;8.818;2022-12-07T12:05:24;98924.28;;;5.53;100.00
10921;BME280;5513;50.580;8.818;2022-12-07T12:08:01;98912.69;;;5.75;100.00
10921;BME280;5513;50.580;8.818;2022-12-07T12:10:58;98920.50;;;6.13;100.00
10921;BME280;5513;50.580;8.818;2022-12-07T12:17:18;98907.22;;;5.80;100.00
10921;BME280;5513;50.580;8.818;2022-12-07T12:20:01;98908.34;;;5.74;100.00
10921;BME280;5513;50.580;8.818;2022-12-07T12:22:36;98904.78;;;5.75;100.00
10921;BME280;5513;50.580;8.818;2022-12-07T12:25:07;98903.09;;;5.74;100.00
10921;BME280;5513;50.580;8.818;2022-12-07T12:27:45;98896.88;;;5.58;100.00
10921;BME280;5513;50.580;8.818;2022-12-07T12:30:34;98902.78;;;5.63;100.00
10921;BME280;5513;50.580;8.818;2022-12-07T12:33:06;98905.25;;;5.47;100.00
10921;BME280;5513;50.580;8.818;2022-12-07T12:35:41;98901.59;;;5.69;100.00
10921;BME280;5513;50.580;8.818;2022-12-07T12:38:27;98898.28;;;5.65;100.00
10921;BME280;5513;50.580;8.818;2022-12-07T12:40:57;98891.72;;;5.74;100.00
10921;BME280;5513;50.580;8.818;2022-12-07T12:43:46;98903.19;;;5.73;100.00
10921;BME280;5513;50.580;8.818;2022-12-07T12:46:51;98898.19;;;5.67;100.00
10921;BME280;5513;50.580;8.818;2022-12-07T12:52:49;98899.66;;;5.55;100.00
10921;BME280;5513;50.580;8.818;2022-12-07T12:55:30;98896.66;;;5.63;100.00
10921;BME280;5513;50.580;8.818;2022-12-07T12:58:33;98892.75;;;5.71;100.00
10921;BME280;5513;50.580;8.818;2022-12-07T13:01:38;98897.34;;;5.66;100.00
10921;BME280;5513;50.580;8.818;2022-12-07T13:04:25;98892.75;;;5.71;100.00
10921;BME280;5513;50.580;8.818;2022-12-07T13:06:56;98883.16;;;5.88;100.00
10921;BME280;5513;50.580;8.818;2022-12-07T13:09:30;98875.31;;;6.05;100.00
10921;BME280;5513;50.580;8.818;2022-12-07T13:12:05;98875.72;;;6.15;100.00
10921;BME280;5513;50.580;8.818;2022-12-07T13:14:53;98881.22;;;6.10;100.00
10921;BME280;5513;50.580;8.818;2022-12-07T13:18:01;98873.81;;;6.18;100.00
10921;BME280;5513;50.580;8.818;2022-12-07T13:20:53;98877.56;;;6.30;100.00
10921;BME280;5513;50.580;8.818;2022-12-07T13:23:29;98879.09;;;6.34;100.00
10921;BME280;5513;50.580;8.818;2022-12-07T13:26:04;98871.22;;;6.17;100.00
10921;BME280;5513;50.580;8.818;2022-12-07T13:28:46;98869.31;;;6.03;100.00
10921;BME280;5513;50.580;8.818;2022-12-07T13:31:31;98870.78;;;5.91;100.00
10921;BME280;5513;50.580;8.818;2022-12-07T13:34:01;98872.94;;;6.00;100.00
10921;BME280;5513;50.580;8.818;2022-12-07T13:36:32;98876.88;;;5.92;100.00
10921;BME280;5513;50.580;8.818;2022-12-07T13:39:18;98875.59;;;5.82;100.00
10921;BME280;5513;50.580;8.818;2022-12-07T13:41:50;98871.41;;;5.78;100.00
10921;BME280;5513;50.580;8.818;2022-12-07T13:44:21;98875.59;;;5.82;100.00
10921;BME280;5513;50.580;8.818;2022-12-07T13:46:57;98858.19;;;5.62;100.00
10921;BME280;5513;50.580;8.818;2022-12-07T13:49:29;98876.25;;;5.68;100.00
10921;BME280;5513;50.580;8.818;2022-12-07T13:52:14;98859.84;;;6.34;100.00
10921;BME280;5513;50.580;8.818;2022-12-07T13:54:45;98861.38;;;6.88;100.00